createdAt,value
2022-08-22T00:01:37.408Z,1017.56
2022-08-22T00:02:45.526Z,1017.506
2022-08-22T00:02:45.630Z,1017.502
2022-08-22T00:02:45.889Z,1017.683
2022-08-22T00:06:35.181Z,1017.582
2022-08-22T00:11:41.023Z,1017.55
2022-08-22T00:16:35.542Z,1017.581
2022-08-22T00:21:35.323Z,1017.632
2022-08-22T00:26:43.303Z,1017.686
2022-08-22T00:31:34.956Z,1017.733
2022-08-22T00:36:33.893Z,1017.749
2022-08-22T00:41:44.620Z,1017.708
2022-08-22T00:46:44.730Z,1017.772
2022-08-22T00:51:43.697Z,1017.783
2022-08-22T00:56:48.649Z,1017.77
2022-08-22T01:01:35.072Z,1017.739
2022-08-22T01:06:36.786Z,1017.758
2022-08-22T01:11:44.258Z,1017.751
2022-08-22T01:16:44.127Z,1017.799
2022-08-22T01:21:43.439Z,1017.824
2022-08-22T01:26:44.758Z,1017.784
2022-08-22T01:31:51.927Z,1017.676
2022-08-22T01:36:50.733Z,1017.685
2022-08-22T01:41:43.729Z,1017.696
2022-08-22T01:46:47.040Z,1017.777
2022-08-22T01:51:40.059Z,1017.801
2022-08-22T01:56:36.763Z,1017.751
2022-08-22T02:01:37.468Z,1017.75
2022-08-22T02:06:36.029Z,1017.72
2022-08-22T02:11:42.407Z,1017.694
2022-08-22T02:16:39.113Z,1017.624
2022-08-22T02:21:36.612Z,1017.665
2022-08-22T02:26:41.244Z,1017.666
2022-08-22T02:31:39.800Z,1017.569
2022-08-22T02:36:35.143Z,1017.528
2022-08-22T02:41:35.848Z,1017.503
2022-08-22T02:46:34.738Z,1017.479
2022-08-22T02:51:37.075Z,1017.45
2022-08-22T02:56:36.301Z,1017.447
2022-08-22T03:01:38.649Z,1017.369
2022-08-22T03:06:46.360Z,1017.365
2022-08-22T03:11:33.421Z,1017.424
2022-08-22T03:16:37.618Z,1017.386
2022-08-22T03:21:35.098Z,1017.305
2022-08-22T03:26:36.106Z,1017.288
2022-08-22T03:31:33.699Z,1017.264
2022-08-22T03:36:42.518Z,1017.137
2022-08-22T03:41:45.585Z,1017.106
2022-08-22T03:46:46.130Z,1017.089
2022-08-22T03:51:44.113Z,1017.076
2022-08-22T03:56:44.732Z,1017.085
2022-08-22T04:01:43.756Z,1017.121
2022-08-22T04:07:00.079Z,1017.057
2022-08-22T04:11:52.573Z,1017.078
2022-08-22T04:16:41.695Z,1017.065
2022-08-22T04:21:45.311Z,1017.165
2022-08-22T04:26:41.284Z,1017.215
2022-08-22T04:31:36.861Z,1017.151
2022-08-22T04:36:43.844Z,1017.147
2022-08-22T04:41:36.077Z,1017.258
2022-08-22T04:46:39.730Z,1017.3
2022-08-22T04:51:36.966Z,1017.321
2022-08-22T04:56:40.047Z,1017.463
2022-08-22T05:01:42.350Z,1017.469
2022-08-22T05:06:43.456Z,1017.515
2022-08-22T05:11:33.959Z,1017.523
2022-08-22T05:16:34.265Z,1017.53
2022-08-22T05:21:35.187Z,1017.614
2022-08-22T05:26:33.091Z,1017.655
2022-08-22T05:31:34.085Z,1017.682
2022-08-22T05:36:43.902Z,1017.604
2022-08-22T05:41:33.097Z,1017.647
2022-08-22T05:46:36.619Z,1017.64
2022-08-22T05:51:40.619Z,1017.714
2022-08-22T05:56:37.884Z,1017.753
2022-08-22T06:01:36.452Z,1017.778
2022-08-22T06:06:33.673Z,1017.819
2022-08-22T06:11:34.136Z,1017.833
2022-08-22T06:16:37.839Z,1017.824
2022-08-22T06:21:39.251Z,1017.858
2022-08-22T06:26:34.539Z,1017.813
2022-08-22T06:31:34.232Z,1017.858
2022-08-22T06:36:35.090Z,1017.806
2022-08-22T06:41:34.758Z,1017.767
2022-08-22T06:46:33.167Z,1017.715
2022-08-22T06:51:32.923Z,1017.697
2022-08-22T06:56:33.925Z,1017.791
2022-08-22T07:01:36.842Z,1017.746
2022-08-22T07:06:33.645Z,1017.727
2022-08-22T07:11:33.826Z,1017.785
2022-08-22T07:16:37.579Z,1017.691
2022-08-22T07:21:36.256Z,1017.696
2022-08-22T07:26:36.701Z,1017.633
2022-08-22T07:31:36.887Z,1017.588
2022-08-22T07:36:33.757Z,1017.5
2022-08-22T07:41:38.064Z,1017.47
2022-08-22T07:46:36.442Z,1017.44
2022-08-22T07:51:36.850Z,1017.312
2022-08-22T07:56:34.386Z,1017.313
2022-08-22T08:01:32.911Z,1017.253
2022-08-22T08:06:32.638Z,1017.261
2022-08-22T08:11:34.943Z,1017.227
2022-08-22T08:16:36.531Z,1017.221
2022-08-22T08:21:37.486Z,1017.197
2022-08-22T08:26:35.114Z,1017.205
2022-08-22T08:31:35.156Z,1017.266
2022-08-22T08:36:37.671Z,1017.366
2022-08-22T08:41:51.016Z,1017.324
2022-08-22T08:46:46.202Z,1017.319
2022-08-22T08:51:45.499Z,1017.238
2022-08-22T08:56:38.567Z,1017.347
2022-08-22T09:01:41.453Z,1017.364
2022-08-22T09:06:50.684Z,1017.323
2022-08-22T09:11:50.679Z,1017.344
2022-08-22T09:16:38.459Z,1017.249
2022-08-22T09:21:43.373Z,1017.156
2022-08-22T09:26:39.828Z,1017.223
2022-08-22T09:31:47.990Z,1017.204
2022-08-22T09:36:36.070Z,1017.135
2022-08-22T09:41:39.178Z,1017.085
2022-08-22T09:46:37.188Z,1017.082
2022-08-22T09:51:38.589Z,1017.046
2022-08-22T09:56:39.897Z,1017.083
2022-08-22T10:01:35.717Z,1016.971
2022-08-22T10:06:35.448Z,1016.875
2022-08-22T10:11:33.903Z,1016.883
2022-08-22T10:16:37.296Z,1016.818
2022-08-22T10:21:37.248Z,1016.885
2022-08-22T10:26:39.069Z,1016.897
2022-08-22T10:31:41.146Z,1016.819
2022-08-22T10:36:37.011Z,1016.864
2022-08-22T10:41:38.093Z,1016.879
2022-08-22T10:46:35.232Z,1016.871
2022-08-22T10:51:47.460Z,1016.891
2022-08-22T10:56:35.455Z,1016.924
2022-08-22T11:01:41.616Z,1016.833
2022-08-22T11:06:34.584Z,1016.915
2022-08-22T11:11:40.254Z,1016.829
2022-08-22T11:16:41.561Z,1016.769
2022-08-22T11:21:37.027Z,1016.818
2022-08-22T11:26:46.629Z,1016.784
2022-08-22T11:31:38.318Z,1016.639
2022-08-22T11:36:39.991Z,1016.662
2022-08-22T11:41:35.085Z,1016.67
2022-08-22T11:46:33.925Z,1016.673
2022-08-22T11:51:40.627Z,1016.681
2022-08-22T11:56:35.399Z,1016.666
2022-08-22T12:01:39.350Z,1016.633
2022-08-22T12:06:51.211Z,1016.605
2022-08-22T12:11:39.649Z,1016.576
2022-08-22T12:16:36.154Z,1016.556
2022-08-22T12:21:56.021Z,1016.492
2022-08-22T12:26:36.809Z,1016.444
2022-08-22T12:31:37.830Z,1016.4
2022-08-22T12:36:46.097Z,1016.338
2022-08-22T12:41:39.870Z,1016.349
2022-08-22T12:46:47.159Z,1016.232
2022-08-22T12:51:36.146Z,1016.162
2022-08-22T12:56:37.137Z,1016.178
2022-08-22T13:01:42.633Z,1016.175
2022-08-22T13:06:48.783Z,1016.078
2022-08-22T13:11:33.724Z,1016.042
2022-08-22T13:16:40.383Z,1015.973
2022-08-22T13:21:38.185Z,1016.01
2022-08-22T13:26:33.459Z,1015.95
2022-08-22T13:31:34.039Z,1015.951
2022-08-22T13:36:33.946Z,1015.858
2022-08-22T13:41:34.155Z,1015.821
2022-08-22T13:46:35.537Z,1015.755
2022-08-22T13:51:34.761Z,1015.743
2022-08-22T13:56:33.878Z,1015.659
2022-08-22T14:01:43.941Z,1015.701
2022-08-22T14:06:41.232Z,1015.678
2022-08-22T14:11:35.744Z,1015.632
2022-08-22T14:16:37.609Z,1015.681
2022-08-22T14:21:40.719Z,1015.622
2022-08-22T14:26:37.520Z,1015.587
2022-08-22T14:31:32.742Z,1015.638
2022-08-22T14:36:33.750Z,1015.558
2022-08-22T14:41:52.986Z,1015.476
2022-08-22T14:46:35.425Z,1015.512
2022-08-22T14:51:32.753Z,1015.469
2022-08-22T14:56:33.558Z,1015.482
2022-08-22T15:01:33.480Z,1015.417
2022-08-22T15:06:47.760Z,1015.443
2022-08-22T15:11:34.744Z,1015.397
2022-08-22T15:16:34.146Z,1015.42
2022-08-22T15:21:37.223Z,1015.382
2022-08-22T15:26:36.098Z,1015.343
2022-08-22T15:31:32.610Z,1015.333
2022-08-22T15:36:32.112Z,1015.285
2022-08-22T15:41:43.627Z,1015.23
2022-08-22T15:46:37.329Z,1015.217
2022-08-22T15:51:44.325Z,1015.232
2022-08-22T15:56:33.982Z,1015.114
2022-08-22T16:01:42.216Z,1015.045
2022-08-22T16:06:44.705Z,1014.979
2022-08-22T16:11:37.522Z,1014.993
2022-08-22T16:16:43.881Z,1015.005
2022-08-22T16:21:43.100Z,1014.931
2022-08-22T16:26:41.053Z,1014.872
2022-08-22T16:31:35.069Z,1014.9
2022-08-22T16:36:46.319Z,1014.796
2022-08-22T16:41:34.351Z,1014.792
2022-08-22T16:46:41.211Z,1014.773
2022-08-22T16:51:32.056Z,1014.719
2022-08-22T16:56:37.168Z,1014.807
2022-08-22T17:01:41.990Z,1014.728
2022-08-22T17:06:45.897Z,1014.734
2022-08-22T17:11:44.518Z,1014.714
2022-08-22T17:16:39.839Z,1014.722
2022-08-22T17:21:36.683Z,1014.715
2022-08-22T17:26:39.976Z,1014.78
2022-08-22T17:31:36.079Z,1014.745
2022-08-22T17:36:37.607Z,1014.876
2022-08-22T17:41:41.234Z,1014.879
2022-08-22T17:46:39.725Z,1014.872
2022-08-22T17:51:36.573Z,1014.931
2022-08-22T17:56:36.227Z,1014.951
2022-08-22T18:01:43.093Z,1014.929
2022-08-22T18:06:34.607Z,1014.932
2022-08-22T18:11:40.278Z,1014.918
2022-08-22T18:16:35.110Z,1014.876
2022-08-22T18:21:36.141Z,1014.895
2022-08-22T18:26:35.003Z,1014.912
2022-08-22T18:31:43.380Z,1014.955
2022-08-22T18:36:34.601Z,1014.958
2022-08-22T18:41:36.692Z,1015.028
2022-08-22T18:46:45.505Z,1015.056
2022-08-22T18:51:35.499Z,1015.095
2022-08-22T18:56:48.373Z,1015.16
2022-08-22T19:01:44.353Z,1015.152
2022-08-22T19:06:52.749Z,1015.17
2022-08-22T19:11:43.518Z,1015.193
2022-08-22T19:16:45.257Z,1015.197
2022-08-22T19:21:45.225Z,1015.221
2022-08-22T19:26:34.207Z,1015.249
2022-08-22T19:31:44.017Z,1015.218
2022-08-22T19:36:38.394Z,1015.262
2022-08-22T19:41:50.989Z,1015.179
2022-08-22T19:46:38.862Z,1015.189
2022-08-22T19:51:32.969Z,1015.135
2022-08-22T19:56:38.072Z,1015.116
2022-08-22T20:01:43.642Z,1015.106
2022-08-22T20:06:44.459Z,1015.139
2022-08-22T20:11:37.961Z,1015.129
2022-08-22T20:16:42.558Z,1015.091
2022-08-22T20:21:51.650Z,1015.14
2022-08-22T20:26:32.469Z,1015.106
2022-08-22T20:31:32.759Z,1015.064
2022-08-22T20:36:35.854Z,1015.064
2022-08-22T20:41:37.179Z,1015.113
2022-08-22T20:46:43.920Z,1015.066
2022-08-22T20:51:33.753Z,1015.021
2022-08-22T20:56:53.457Z,1015.119
2022-08-22T21:01:32.333Z,1015.13
2022-08-22T21:06:38.905Z,1015.172
2022-08-22T21:11:44.542Z,1015.149
2022-08-22T21:16:35.709Z,1015.109
2022-08-22T21:21:33.046Z,1015.081
2022-08-22T21:26:32.838Z,1015.062
2022-08-22T21:31:33.992Z,1015.055
2022-08-22T21:36:34.268Z,1015.033
2022-08-22T21:41:34.306Z,1015.017
2022-08-22T21:46:32.504Z,1015.011
2022-08-22T21:51:45.355Z,1014.999
2022-08-22T21:56:34.944Z,1014.988
2022-08-22T22:01:36.210Z,1014.955
2022-08-22T22:06:32.206Z,1014.929
2022-08-22T22:11:32.424Z,1014.94
2022-08-22T22:16:33.817Z,1014.951
2022-08-22T22:21:32.127Z,1014.959
2022-08-22T22:26:32.628Z,1014.936
2022-08-22T22:31:32.050Z,1015.007
2022-08-22T22:36:36.814Z,1015.026
2022-08-22T22:41:33.496Z,1015.045
2022-08-22T22:46:32.221Z,1015.012
2022-08-22T22:51:32.124Z,1015.062
2022-08-22T22:56:32.217Z,1015.05
2022-08-22T23:01:32.080Z,1015.042
2022-08-22T23:06:32.988Z,1015.09
2022-08-22T23:11:32.917Z,1015.117
2022-08-22T23:16:37.160Z,1015.089
2022-08-22T23:21:33.201Z,1015.033
2022-08-22T23:26:34.985Z,1014.995
2022-08-22T23:31:35.753Z,1014.994
2022-08-22T23:36:32.055Z,1014.919
2022-08-22T23:41:31.935Z,1014.881
2022-08-22T23:46:32.168Z,1014.903
2022-08-22T23:51:32.109Z,1014.855
2022-08-22T23:56:35.108Z,1014.83
